Weather observations for the past three days for
Atkinson Municipal Airport
Metric (Imperial)
Date Time (cdt) Wind (kph) Vis. (km) Weather Sky Cond. Temperature (ºC) Relative Humidity Wind Chill (°C) Heat Index (°C) Pressure Precipitation (cm)
Air Dwpt 6 hour altimeter (cm) sea level (mb) 1 hr 3 hr 6 hr
Max. Min.
07 16:35 W 13 16.09 Fair CLR 20 7 43% 76.05 0.0
07 16:15 S 17 G 33 16.09 Fair CLR 20 8 46% 76.05 0.0
07 15:55 SW 20 G 33 16.09 Fair CLR 20 7 43% 76.07 0.0
07 15:35 SW 24 G 31 16.09 Fair CLR 20 7 43% 76.1 0.0
07 15:15 W 17 G 30 16.09 A Few Clouds FEW055 19 6 43% 76.12 0.0
07 14:55 SW 13 G 26 16.09 Partly Cloudy SCT055 19 8 49% 76.17 0.0
07 14:35 SW 19 G 28 16.09 Partly Cloudy SCT055 19 7 46% 76.2 0.0
07 14:15 SW 15 G 33 16.09 A Few Clouds FEW055 19 7 46% 76.2 0.0
07 13:55 SW 17 G 33 16.09 A Few Clouds FEW055 19 7 46% 76.23 0.0
07 13:35 W 13 G 26 16.09 Partly Cloudy SCT055 18 7 49% 76.23 0.0
07 13:15 SW 13 G 33 16.09 Partly Cloudy SCT055 18 7 49% 76.25 0.0
07 12:55 SW 17 16.09 A Few Clouds FEW055 18 6 18.2 5.1 46% 76.25 0.0
07 12:35 W 19 16.09 A Few Clouds FEW055 17 6 49% 76.28 0.0
07 12:15 SW 19 16.09 Fair CLR 18 7 49% 76.33 0.0
07 11:55 SW 19 G 28 16.09 A Few Clouds FEW050 18 7 49% 76.33 0.0
07 11:35 SW 19 G 26 16.09 Fair CLR 17 6 49% 76.35 0.0
07 11:15 SW 20 G 30 16.09 Fair CLR 17 5 45% 76.38 0.0
07 10:55 SW 17 16.09 Fair CLR 16 5 48% 76.38 0.0
07 10:35 SW 15 16.09 Fair CLR 16 4 45% 76.38 0.0
07 10:15 S 17 16.09 Fair CLR 16 5 48% 76.38 0.0
07 09:55 SW 17 16.09 Fair CLR 15 5 51% 76.4 0.0
07 09:35 SW 11 16.09 Fair CLR 14 6 59% 76.4 0.0
07 09:15 SW 11 16.09 Fair CLR 13 6 63% 76.4 0.0
07 08:55 SW 9 16.09 Fair CLR 13 6 63% 76.43 0.0
07 08:35 SW 13 16.09 Fair CLR 11 6 72% 76.4 0.0
07 08:15 S 11 16.09 Fair CLR 10 7 82% 9 76.43 0.0
07 07:55 S 9 16.09 Fair CLR 9 7 87% 8 76.43 0.0
07 07:35 S 7 16.09 Fair CLR 8 7 93% 7 76.4 0.0
07 07:15 SW 2 16.09 Fair CLR 6 6 100% 76.4 0.0
07 06:55 S 4 16.09 Fair CLR 5 5 6.9 3.7 100% 76.38 0.0
07 06:35 SE 2 16.09 Fair CLR 5 5 100% 76.38 0.0
07 06:15 S 2 16.09 A Few Clouds FEW110 6 6 100% 76.38 0.0
07 05:55 S 2 16.09 Partly Cloudy SCT110 6 6 100% 76.38 0.0
07 05:35 S 2 16.09 Partly Cloudy SCT120 6 6 100% 76.35 0.0
07 05:15 S 2 16.09 Overcast OVC120 7 7 100% 76.35 0.0
07 04:55 S 2 16.09 Mostly Cloudy BKN120 7 7 100% 76.35 0.0
07 04:35 Calm 16.09 Partly Cloudy SCT120 7 7 100% 76.38 0.0
07 04:15 Calm 16.09 Partly Cloudy SCT120 7 6 93% 76.38 0.0
07 03:55 Calm 16.09 Overcast OVC120 6 6 100% 76.35 0.0
07 03:35 Calm 16.09 Overcast OVC120 6 6 100% 76.38 0.0
07 03:15 Calm 16.09 Overcast OVC120 5 5 100% 76.38 0.0
07 02:55 SW 2 16.09 Overcast OVC120 4 4 100% 76.38 0.0
07 02:15 NW 2 16.09 Fair CLR 4 4 100% 76.38 0.0
07 01:55 NW 2 16.09 Fair CLR 4 4 100% 76.4 0.0
07 01:35 N 2 16.09 Fair CLR 4 4 100% 76.4 0.0
07 01:15 Calm 16.09 Fair CLR 5 5 100% 76.43 0.0
07 00:55 E 4 16.09 Fair CLR 5 5 15.4 4.8 100% 76.4 0.0
07 00:35 Calm 16.09 Fair CLR 5 5 100% 76.43 0.0
07 00:15 SE 2 16.09 Fair CLR 5 5 100% 76.43 0.0
06 23:55 NE 2 16.09 Fair CLR 6 6 100% 76.43 0.0
06 23:35 NE 2 16.09 Fair CLR 6 6 100% 76.43 0.0
06 23:15 NW 4 16.09 Fair CLR 6 6 100% 76.43 0.0
06 22:55 Calm 16.09 Fair CLR 6 6 100% 76.4 0.0
06 22:35 NW 2 16.09 Fair CLR 6 6 100% 76.4 0.0
06 22:15 NW 4 16.09 Fair CLR 7 6 93% 76.4 0.0
06 21:55 N 2 16.09 Fair CLR 7 6 93% 76.38 0.0
06 21:35 NW 2 16.09 Fair CLR 8 5 82% 76.38 0.0
06 21:15 N 2 16.09 Fair CLR 9 5 76% 76.38 0.0
06 20:55 N 2 16.09 Fair CLR 9 5 76% 76.35 0.0
06 20:35 NE 4 16.09 Fair CLR 11 4 62% 76.33 0.0
06 20:15 N 6 16.09 Fair CLR 12 3 54% 76.33 0.0
06 19:55 NE 9 16.09 Fair CLR 13 2 47% 76.3 0.0
06 19:35 N 13 16.09 Fair CLR 14 1 41% 76.3 0.0
06 19:15 NE 15 G 26 16.09 Fair CLR 15 1 39% 76.28 0.0
06 18:55 N 15 16.09 Fair CLR 15 1 17.3 14 39% 76.28 0.0
06 18:35 NE 17 16.09 A Few Clouds FEW060 16 2 39% 76.25 0.0
06 18:15 N 17 16.09 Fair CLR 16 3 42% 76.23 0.0
06 17:55 N 17 16.09 Fair CLR 16 2 39% 76.23 0.0
06 17:35 NE 15 16.09 A Few Clouds FEW060 17 3 39% 76.25 0.0
06 17:15 NE 19 G 28 16.09 A Few Clouds FEW060 16 2 39% 76.23 0.0
06 16:55 E 15 16.09 Fair CLR 17 2 37% 76.25 0.0
06 16:35 NE 20 16.09 Fair CLR 17 3 39% 76.28 0.0
06 16:15 NE 15 G 28 16.09 Fair CLR 17 3 39% 76.28 0.0
06 15:55 N 20 G 31 16.09 Fair CLR 16 3 42% 76.28 0.0
06 15:35 NE 19 G 28 16.09 Fair CLR 17 3 39% 76.28 0.0
06 15:15 N 22 G 30 16.09 A Few Clouds FEW055 16 3 42% 76.28 0.0
06 14:55 N 13 G 30 16.09 Fair CLR 16 3 42% 76.3 0.0
06 14:35 NE 19 G 33 16.09 Fair CLR 17 3 39% 76.33 0.0
06 14:15 N 15 16.09 Fair CLR 15 3 45% 76.35 0.0
06 13:55 N 11 16.09 A Few Clouds FEW055 15 3 45% 76.35 0.0
06 13:35 NE 11 16.09 Fair CLR 16 3 42% 76.4 0.0
06 13:15 N 22 G 30 16.09 A Few Clouds FEW050 15 3 45% 76.38 0.0
06 12:55 NE 13 16.09 Fair CLR 15 4 15.6 7.3 48% 76.4 0.0
06 12:35 N 17 16.09 Fair CLR 14 3 48% 76.43 0.0
06 12:15 NE 19 G 28 16.09 Fair CLR 15 4 48% 76.43 0.0
06 11:55 NE 17 G 30 16.09 Fair CLR 14 4 51% 76.45 0.0
06 11:35 N 15 G 26 16.09 Fair CLR 14 4 51% 76.43 0.0
06 11:15 N 11 16.09 Fair CLR 13 4 55% 76.38 0.0
06 10:55 NE 13 16.09 Fair CLR 13 5 59% 76.38 0.0
06 10:35 NE 15 16.09 A Few Clouds FEW080 13 5 59% 76.33 0.0
06 10:15 N 17 16.09 Mostly Cloudy BKN080 12 5 63% 76.35 0.0
06 09:55 NE 11 16.09 Overcast OVC080 11 5 67% 76.33 0.0
06 09:35 N 15 16.09 Overcast BKN065 OVC080 12 5 63% 76.33 0.0
06 09:15 NE 13 16.09 Partly Cloudy SCT065 11 6 72% 76.35 0.0
06 08:55 N 11 16.09 Partly Cloudy SCT065 SCT085 10 6 76% 9 76.35 0.0
06 08:35 NE 9 16.09 Overcast OVC065 9 6 82% 8 76.35 0.0
06 08:15 NE 7 16.09 Overcast OVC065 9 6 82% 8 76.33 0.0
06 07:55 NE 7 16.09 Overcast OVC065 8 7 93% 7 76.33 0.0
06 07:35 NE 9 16.09 Overcast OVC065 8 6 87% 7 76.33 0.0
06 07:15 N 9 16.09 Overcast OVC065 8 6 87% 7 76.28 0.0
06 06:55 E 13 16.09 Overcast OVC065 8 6 7.9 6.7 87% 6 76.25 0.0
06 06:35 NE 9 16.09 Overcast OVC065 7 6 93% 5 76.25 0.0
06 06:15 NE 11 16.09 Overcast SCT055 OVC065 7 6 93% 5 76.25 0.0
06 05:55 N 15 16.09 Overcast OVC060 7 6 93% 5 76.25 0.0
06 05:35 N 9 16.09 Overcast OVC060 8 7 93% 7 76.28 0.0
06 05:15 N 13 16.09 Overcast SCT044 OVC060 8 7 93% 6 76.23 0.0
06 04:55 NE 11 16.09 Overcast FEW009 BKN044 OVC060 8 7 93% 6 76.2 0.0
06 04:35 Vrbl 7 16.09 Overcast SCT009 SCT023 OVC060 7 7 100% 6 76.17 0.0
06 04:15 N 11 16.09 Overcast FEW038 OVC060 7 7 100% 5 76.12 0.0
06 03:55 N 7 16.09 Overcast BKN038 OVC060 7 7 100% 6 76.12 0.0
06 03:35 Vrbl 7 16.09 Light Rain BKN034 OVC060 7 7 100% 6 76.12 0.0
06 03:15 Vrbl 7 16.09 Light Rain SCT024 BKN033 OVC060 7 7 100% 6 76.1 0.0
06 02:55 NE 11 16.09 Overcast FEW024 OVC060 7 7 100% 5 76.02 0.0
06 02:35 Vrbl 4 16.09 Overcast OVC060 7 7 100% 76.07 0.0
06 02:15 NE 13 16.09 Overcast OVC060 7 7 100% 5 76.02 0.0
06 01:55 N 9 16.09 Overcast OVC060 7 7 100% 5 76.05 0.0
06 01:35 E 13 16.09 Overcast OVC060 7 7 100% 5 76.05 0.0
06 01:15 NE 9 16.09 Overcast OVC060 7 7 100% 5 76.12 0.0
06 00:55 NE 7 16.09 Overcast OVC060 7 7 8.2 6.6 100% 6 76.12 0.0
06 00:15 Vrbl 6 16.09 Overcast OVC060 7 7 100% 76.12 0.0
05 23:55 N 7 16.09 Overcast OVC060 7 7 100% 6 76.12 0.0
05 23:35 N 9 16.09 Overcast SCT006 SCT011 OVC060 7 7 100% 5 76.1 0.0
05 23:15 Vrbl 9 16.09 Overcast BKN006 OVC060 7 7 100% 5 76.07 0.0
05 22:55 N 9 16.09 Overcast BKN009 OVC055 7 7 100% 5 76.05 0.0 0.08
05 22:35 N 9 16.09 Overcast BKN009 BKN049 OVC055 7 7 100% 5 76.02 0.0
05 22:15 NE 11 4.83 Light Rain Fog/Mist SCT009 BKN048 OVC055 7 7 100% 5 76.02 0.0
05 21:55 NE 13 9.66 Light Rain Fog/Mist FEW034 SCT043 OVC050 7 7 100% 5 76 0.0 0.13
05 21:35 E 20 6.44 Light Rain Fog/Mist SCT044 BKN050 OVC065 7 7 100% 4 75.95 0.0
05 21:15 NE 11 4.83 Light Rain Fog/Mist BKN050 OVC065 8 7 93% 6 75.97 0.0
05 20:55 N 15 16.09 Light Rain OVC045 8 7 93% 6 75.92 0.0
05 20:35 NE 11 16.09 Light Drizzle SCT045 OVC060 8 7 93% 6 75.92 0.0
05 20:15 NE 17 16.09 Light Rain SCT042 OVC060 8 7 93% 6 75.9 0.0
05 19:55 NE 19 16.09 Light Rain BKN042 OVC050 8 7 93% 5 75.84 0.0
05 19:35 NE 17 16.09 Overcast FEW014 FEW042 OVC050 8 7 93% 6 75.87 0.0
05 19:15 NE 13 16.09 Light Drizzle FEW014 OVC050 8 7 93% 6 75.87 0.0
05 18:55 NE 17 G 33 16.09 Light Rain OVC050 8 7 11.3 8.1 93% 6 75.84 0.0
05 18:35 N 22 G 28 16.09 Light Rain FEW037 OVC050 8 7 93% 5 75.87 0.0
05 18:15 NE 17 G 33 16.09 Light Rain FEW019 FEW037 OVC048 8 7 93% 6 75.82 0.0
05 17:55 NE 22 G 41 16.09 Overcast FEW019 FEW038 OVC046 9 6 82% 6 75.82 0.0
05 17:35 NE 24 G 39 16.09 Overcast SCT036 OVC046 9 6 82% 6 75.79 0.0
05 17:15 NE 19 G 37 16.09 Overcast FEW034 OVC044 9 6 82% 7 75.79 0.0
05 16:55 NE 17 G 37 16.09 Light Rain FEW035 OVC042 9 5 76% 7 75.79 0.0
05 16:35 NE 26 G 41 16.09 Light Rain FEW035 OVC042 9 5 76% 6 75.82 0.0
05 16:15 NE 24 G 39 16.09 Overcast OVC040 9 5 76% 6 75.79 0.0
05 15:55 NE 28 G 44 16.09 Overcast FEW032 OVC040 10 5 71% 7 75.79 0.0
05 15:35 NE 28 G 41 16.09 Overcast BKN032 OVC040 10 5 71% 7 75.79 0.0
05 15:15 NE 24 G 39 16.09 Overcast OVC040 10 6 76% 7 75.79 0.0
05 14:35 NE 24 G 54 16.09 Light Rain OVC040 10 5 71% 7 75.79 0.0
05 14:15 NE 26 G 43 16.09 Overcast OVC040 10 5 71% 7 75.77 0.0
05 13:55 NE 28 G 46 16.09 Overcast OVC040 11 5 67% 75.77 0.0
05 13:35 NE 33 G 46 16.09 Overcast and Breezy OVC040 11 5 67% 75.74 0.0
05 13:15 NE 31 G 46 16.09 Overcast OVC040 11 5 67% 75.74 0.0
05 12:55 N 35 G 54 16.09 Light Rain and Breezy OVC040 11 5 12.1 10.7 67% 75.74 0.0
05 12:35 NE 35 G 52 16.09 Overcast and Breezy OVC040 11 5 67% 75.74 0.0
05 12:15 NE 41 G 59 16.09 Overcast and Breezy OVC040 12 4 58% 75.69 0.0
05 11:55 NE 28 G 52 16.09 Overcast OVC040 12 5 63% 75.69 0.0
05 11:35 NE 31 G 46 16.09 Overcast OVC040 12 6 67% 75.69 0.0
05 11:15 NE 26 G 41 16.09 Light Rain OVC040 12 6 67% 75.74 0.0
05 10:55 NE 30 G 48 16.09 Overcast BKN042 BKN050 OVC060 11 6 72% 75.72 0.0
05 10:35 NE 30 G 48 16.09 Overcast OVC060 11 7 77% 75.67 0.0
05 10:15 NE 33 G 46 16.09 Light Rain and Breezy FEW032 FEW042 OVC060 11 8 82% 75.67 0.0
05 09:55 NE 19 G 35 8.05 Light Rain Haze SCT032 BKN046 BKN060 11 9 88% 75.69 0.0 0.03
05 09:35 NE 24 G 43 16.09 Light Rain OVC046 12 8 77% 75.72 0.0
05 09:15 NE 26 G 41 16.09 Overcast SCT044 BKN050 OVC070 12 8 77% 75.64 0.0
05 08:55 NE 28 G 41 16.09 Overcast OVC070 12 8 77% 75.59 0.0
05 08:35 E 30 G 46 16.09 Overcast OVC080 12 8 77% 75.57 0.0
05 08:15 NE 24 G 48 16.09 Overcast OVC080 11 8 82% 75.57 0.0
05 07:55 NE 30 G 46 16.09 Overcast SCT017 OVC080 11 8 82% 75.59 0.0
05 07:35 NE 35 G 46 16.09 Overcast and Breezy OVC015 12 8 77% 75.57 0.0
05 07:15 NE 35 G 50 16.09 Overcast and Breezy OVC013 12 10 88% 75.51 0.0
05 06:55 NE 28 G 39 16.09 Overcast OVC013 12 10 19.8 11.8 88% 75.49 0.0
05 06:35 NE 28 G 37 16.09 Mostly Cloudy SCT015 BKN090 12 10 88% 75.49 0.0
05 06:15 N 24 G 33 16.09 Overcast OVC090 12 10 88% 75.49 0.0
05 05:55 NE 22 G 31 16.09 Overcast BKN090 OVC110 13 11 88% 75.44 0.0
05 05:35 NE 28 G 39 16.09 Overcast SCT036 OVC090 14 12 88% 75.46 0.0
05 05:15 NE 15 G 30 16.09 Overcast SCT034 BKN041 OVC100 14 12 88% 75.46 0.0
05 04:55 NE 19 G 28 16.09 Light Rain BKN036 OVC043 15 13 88% 75.46 0.0
05 04:35 NE 24 G 31 16.09 Overcast BKN036 BKN060 OVC110 17 14 83% 75.44 0.0
05 04:15 NE 11 16.09 Overcast SCT025 BKN075 OVC110 17 15 88% 75.39 0.0
05 03:55 N 9 16.09 Overcast FEW015 BKN023 OVC080 17 15 88% 75.44 0.0
05 03:35 N 13 G 26 16.09 Mostly Cloudy FEW016 SCT080 BKN120 16 16 100% 75.41 0.0
05 03:15 NW 6 16.09 Mostly Cloudy BKN080 16 16 100% 75.31 0.0
05 02:55 W 7 16.09 Fair CLR 16 16 100% 75.29 0.0
05 02:35 S 11 16.09 Fair CLR 17 16 94% 75.23 0.0
05 02:15 S 15 G 28 16.09 Fair CLR 17 16 94% 75.26 0.0
05 01:55 S 30 G 44 16.09 Mostly Cloudy BKN043 BKN060 BKN110 17 16 94% 75.16 0.0 0.05
05 01:35 S 31 G 61 6.44 Light Rain Fog/Mist FEW032 BKN041 OVC055 17 16 94% 75.26 0.0
05 01:15 SW 33 G 54 8.05 Light Rain Fog/Mist and Breezy SCT028 BKN041 OVC065 18 16 88% 75.31 0.0
05 00:55 S 22 16.09 Light Rain SCT019 BKN042 OVC060 20 14 23.3 19.8 69% 75.34 0.0
05 00:35 S 15 16.09 Mostly Cloudy BKN042 BKN050 20 14 69% 75.34 0.0
05 00:15 S 7 16.09 A Few Clouds FEW049 FEW055 20 14 69% 75.34 0.0
04 23:55 S 17 G 33 16.09 Fair CLR 20 14 69% 75.29 0.0
04 23:35 S 20 G 28 16.09 Fair CLR 20 14 69% 75.31 0.0
04 23:15 S 19 G 31 16.09 Fair CLR 20 14 69% 75.31 0.0
04 22:55 S 22 16.09 Fair CLR 20 14 69% 75.31 0.0
04 22:35 S 15 16.09 Fair CLR 20 14 69% 75.36 0.0
04 22:15 S 11 16.09 A Few Clouds FEW049 21 14 64% 75.36 0.0
04 21:55 S 17 16.09 Fair CLR 21 14 64% 75.36 0.0
04 21:35 S 15 16.09 A Few Clouds FEW050 21 14 64% 75.36 0.0
04 21:15 S 13 16.09 A Few Clouds FEW050 21 14 64% 75.34 0.0
04 20:55 S 11 16.09 Fair CLR 21 14 64% 75.34 0.0
04 20:35 S 15 G 30 16.09 Fair CLR 22 14 61% 75.31 0.0
04 20:15 S 20 16.09 A Few Clouds FEW050 22 14 61% 75.31 0.0
04 19:55 S 22 G 31 16.09 Fair CLR 22 14 61% 75.29 0.0
04 19:35 SW 13 16.09 Fair CLR 23 14 57% 75.29 0.0
04 19:15 SW 20 G 30 16.09 Fair CLR 23 14 57% 75.29 0.0
04 18:55 SW 20 G 33 16.09 Fair CLR 23 15 26.9 23.3 61% 75.29 0.0
04 18:35 SW 19 16.09 Fair CLR 24 15 57% 25 75.29 0.0
04 18:15 S 28 G 41 16.09 Fair CLR 24 15 57% 25 75.29 0.0
04 17:55 S 20 G 37 16.09 Fair CLR 24 15 57% 25 75.29 0.0
04 17:35 S 20 G 28 16.09 Fair CLR 24 16 61% 25 75.29 0.0
04 17:15 S 22 G 39 16.09 Fair CLR 25 16 57% 26 75.26 0.0
Date Time (cdt) Wind (kph) Vis. (km) Weather Sky Cond. Air Dwpt Max. Min. Relative Humidity Wind Chill (°C) Heat Index (°C) altimeter (cm) sea level (mb) 1 hr 3 hr 6 hr
6 hour
Temperature (ºC) Pressure Precipitation (cm)